Portada
METAR-TAF:

METAR-TAF

Aeropuertos :

Aeropuerto Internacional Antonio B. Won Pat

Agaña, Guam, Estados Unidos

latitud: 13-29N, longitud: 144-48E, altitud: 91 m

Observación

El informe se hizo hace 54 minutos, a las 18:54 UTC
Viento 8 kt del este
Temperatura 28°C
Humedad 89%
Presión 1014 hPa
Visibilidad: 16.1 km
Cielo despejado

METAR: PGUM 211854Z 09008KT 10SM CLR 28/26 A2993 RMK AO2 SLP126 T02780256

Hora: 05:48 (19:48 UTC)

Pronóstico

El informe se hizo hace 2 horas y 18 minutos, a las 17:30 UTC
Pronóstico válido del 21 a las 18 UTC al 22 a las 24 UTC
Viento 8 kt del este
Visibilidad: 10 km
Escasas nubes a una altura de 2000 ft
Nubes dispersas a una altura de 20000 ft
chaparrones en las proximidades

TAF: PGUM 211730Z 2118/2224 08008KT P6SM VCSH FEW020 SCT200

Observaciones y pronósticos meteorológicos de más de 4000 aeropuertos (mensajes METAR y TAF).

Los puntos amarillos y rojos representan las estaciones disponibles.

Ponga el ratón en el punto deseado para ver el nombre de la estación.

Haga clic para ver las observaciones y los pronósticos meteorológicos.

Para cambiar el mapa : haga clic en los botones verdes con una cruz de color negro para hacer un zoom, en el botón verde con un guión para alejar o en las flechas verdes para mapas adyacentes.


METAR-TAF: